Etusivu
METAR-TAF:

METAR-TAF

Lentoasemat :

Larnaka, Kypros

Larnakan kansainvälinen lentoasema

Leveyspiiri: 34-53N, Pituuspiiri: 033-38E, korkeus merenpinnasta: 2 m

Tämänhetkinen sää

Tämä raportti tehtiin 38 minuuttia sitten, kello 18.30 UTC
Tuuli 5 kn lounaasta
Lämpötila 27°C
Kosteus 37%
Ilmanpaine 1011 hPa
Näkyvyys 10 km tai enemmän
ei pilviä alle 1500 m:ssä eikä cumulonimbus-pilviä

METAR: LCLK 231830Z 22005KT CAVOK 27/11 Q1011 NOSIG

Aika: 22:08 (19:08 UTC)

Sääennuste

Tämä raportti tehtiin 1 tunti ja 38 minuuttia sitten, kello 17.30 UTC
Ennuste voimassa 23. päivästä klo 18 UTC - 24. päivään klo 18 UTC
Tuuli 6 kn luoteesta
Näkyvyys 10 km tai enemmän
ei pilviä alle 1500 m:ssä eikä cumulonimbus-pilviä
Tulossa
24. päivästä klo 09 UTC - 24. päivään klo 13 UTC
Tuuli 14 kn etelästä/lounaasta

TAF: LCLK 231730Z 2318/2418 32006KT CAVOK BECMG 2409/2413 21014KT

Säähavainnot ja -ennusteet yli 4000 lentoasemalta (METAR- ja TAF-raportit).

Käytössä olevat sääasemat on merkitty karttaan keltaisilla ja punaisilla pisteillä.

Aseta hiiri pisteen päälle nähdäksesi sääaseman nimen.

Klikkaa sitten nähdäksesi säähavainnot ja -ennusteet.

Kartan vaihtaminen: klikkaa mustalla rastilla varustettuja vihreitä pisteitä, niin voit zoomata sisään; viivalla varustettua vihreää pistettä, niin voit zoomata ulos tai vihreitä nuolia, niin pääset viereisille kartoille.


METAR-TAF: